Acme, Pennsylvania
Current Conditions -  °F | °C
As of 1:15 AM on Friday 19 Dec 2014 (Local Time) from K2G9 Reporting Station
Overcast Overcast  
Wind Chill: 11°   Ceiling: 800
Heat Index: 23°   Visibility: 7mi
Dew Point: 21°   Wind: 13mph
Humidity: 93%   Direction: 280°W
Pressure: 30.05"   Gusts: 17mph
Location:  40.13°N, 79.43°W
Report Text: K2G9 190615Z AUTO 28011G15KT 7SM OVC008 M05/M06 A3005 RMK AO2
Loading
Personal Weather Stations






























Interactive Weather Map New forecast layout! Learn more

10-Day Weather Forecast

Advertisements
Track Severe Weather on mobile